Pagrindinis puslapis
METAR-TAF:

METAR-TAF

Oro uostai :

Tartu, Estija

platuma: 58-18N, ilguma: 026-44E, Aukštis: 59 m

Dabartinis oras

Ataskaita buvo paskelbta 29 minutes, ne 16:50 UTC
Vėjas 4 kt iš Šiaurės Rytų
Temperatūra 2°C
Drėgmė 93%
Slėgis 1017 hPa
Matomumas: 0600 m
rūkas,

METAR: EETU 271650Z AUTO 05004KT 0600 R08/1800N FG OVC002/// 02/01 Q1017

Laikas: 19:19 (17:19 UTC)


TAF: trūkstamas

Orai ataskaitas ir orų prognozės (METAR, TAF).

turimą stotys yra geltonos ir raudonos taškus žemėlapyje.

Perkelti pele per norėdami pamatyti stoties vardą.

Tada spustelėkite, norėdami matyti oro stebėjimo ir prognozės.

Norėdami pakeisti žemėlapį: spustelėkite ant žalios mygtukų su juodo kryžiaus žemyn,; žalią mygtuką su brūkšneliu, jei norite nutolinti; arba žalių rodyklių gretimoms žemėlapius.


METAR-TAF: